Flight Track Log - Related Links

Times and Time Zones

All times are in EDT time to prevent confusion due to time zone crossing. See the SWA407 flight status page for this flight to view local times or setup timezone preferences in your user account.

Time Position Orientation Groundspeed Altitude Reporting Facility
EDT Latitude Longitude Course Direction KTS MPH feet Rate Location/Type
Tue 05:57:29 PM 33.6497 -84.3681 62° Northeast 444 511 2,800  Level Atlanta Center
Tue 05:58:29 PM 33.6833 -84.2933 62° Northeast 329 379 5,300 2,850 Climbing Atlanta Center
Tue 05:59:29 PM 33.7586 -84.2786 North 295 339 8,500 2,600 Climbing Atlanta Center
Tue 06:00:29 PM 33.8106 -84.3339 319° Northwest 229 264 10,500 2,250 Climbing Atlanta Center
Tue 06:01:29 PM 33.8103 -84.4164 270° West 245 282 13,000 1,900 Climbing Atlanta Center
Tue 06:02:29 PM 33.8142 -84.5214 273° West 281 323 14,300 2,200 Climbing Atlanta Center
Tue 06:03:29 PM 33.8117 -84.6364 269° West 316 364 17,400 2,850 Climbing Atlanta Center
Tue 06:04:29 PM 33.8089 -84.7514 268° West 340 391 20,000 2,700 Climbing Atlanta Center
Tue 06:05:29 PM 33.8058 -84.8839 268° West 358 412 22,800 2,400 Climbing Atlanta Center
Tue 06:06:29 PM 33.7967 -85.0036 265° West 368 423 24,800 1,850 Climbing Atlanta Center
Tue 06:07:29 PM 33.7792 -85.1233 260° West 368 423 26,500 1,100 Climbing Atlanta Center
Tue 06:08:29 PM 33.7717 -85.2508 266° West 375 432 27,000 250 Climbing Atlanta Center
Tue 06:09:29 PM 33.7933 -85.3736 282° West 369 425 27,000  Level Atlanta Center
Tue 06:10:29 PM 33.8128 -85.4964 281° West 375 432 27,000  Level Atlanta Center
Tue 06:11:29 PM 33.8364 -85.6194 283° West 375 432 27,000  Level Atlanta Center
Tue 06:12:29 PM 33.8642 -85.7250 288° West 375 432 27,000  Level Atlanta Center
Tue 06:13:29 PM 33.9022 -85.8408 292° West 380 437 27,000  Level Atlanta Center
Tue 06:14:29 PM 33.9419 -85.9669 291° West 386 444 27,000 150 Level Atlanta Center
Tue 06:15:29 PM 33.9817 -86.0981 290° West 408 470 27,300 1,050 Climbing Atlanta Center
Tue 06:16:29 PM 34.0189 -86.2342 288° West 418 481 29,100 1,800 Climbing Atlanta Center
Tue 06:17:29 PM 34.0581 -86.3681 289° West 423 487 30,900 1,850 Climbing Atlanta Center
Tue 06:18:29 PM 34.0933 -86.4969 288° West 423 487 32,800 1,191 Climbing Atlanta Center
Tue 06:21:46 PM 34.2086 -86.9214 288° West 388 447 36,000 747 Climbing Memphis Center
Tue 06:22:46 PM 34.2433 -87.0456 289° West 395 455 36,000  Level Memphis Center
Tue 06:23:46 PM 34.2778 -87.1675 289° West 395 455 36,000  Level Memphis Center
Tue 06:24:46 PM 34.3119 -87.2842 290° West 383 441 36,000  Level Memphis Center
Tue 06:25:46 PM 34.3464 -87.4114 288° West 378 435 36,000  Level Memphis Center
Tue 06:26:46 PM 34.3783 -87.5286 288° West 390 449 36,000  Level Memphis Center
Tue 06:27:46 PM 34.4125 -87.6533 288° West 395 455 36,000  Level Memphis Center
Tue 06:28:46 PM 34.4442 -87.7756 287° West 395 455 36,000  Level Memphis Center
Tue 06:29:46 PM 34.4758 -87.8956 288° West 395 455 36,000  Level Memphis Center
Tue 06:30:46 PM 34.5322 -88.0075 301° West 395 455 36,000  Level Memphis Center
Tue 06:31:46 PM 34.6069 -88.1014 314° West 386 444 36,000  Level Memphis Center
Tue 06:32:46 PM 34.6817 -88.1978 313° West 392 451 36,000  Level Memphis Center
Tue 06:33:46 PM 34.7564 -88.2969 313° West 392 451 36,000  Level Memphis Center
Tue 06:34:46 PM 34.8042 -88.4122 297° West 386 444 36,000  Level Memphis Center
Tue 06:35:46 PM 34.8500 -88.5300 295° West 381 438 36,000  Level Memphis Center
Tue 06:36:46 PM 34.8933 -88.6481 294° West 381 438 36,000  Level Memphis Center
Tue 06:37:46 PM 34.9344 -88.7689 293° West 386 444 36,000  Level Memphis Center
Tue 06:38:46 PM 34.9819 -88.8897 296° West 391 450 36,000  Level Memphis Center
Tue 06:39:46 PM 35.0250 -89.0081 294° West 391 450 36,000  Level Memphis Center
Tue 06:40:46 PM 35.0681 -89.1342 293° West 380 437 36,000  Level Memphis Center
Tue 06:41:46 PM 35.1131 -89.2553 294° West 375 432 36,000  Level Memphis Center
Tue 06:42:46 PM 35.1558 -89.3767 293° West 380 437 36,000  Level Memphis Center
Tue 06:43:46 PM 35.1942 -89.4806 294° West 380 437 36,000  Level Memphis Center
Tue 06:44:46 PM 35.2344 -89.5994 293° West 380 437 36,000  Level Memphis Center
Tue 06:45:46 PM 35.2769 -89.7186 294° West 380 437 36,000  Level Memphis Center
Tue 06:46:46 PM 35.3211 -89.8381 294° West 375 432 36,000  Level Memphis Center
Tue 06:47:46 PM 35.3614 -89.9572 293° West 375 432 36,000  Level Memphis Center
Tue 06:48:46 PM 35.4033 -90.0769 293° West 375 432 36,000  Level Memphis Center
Tue 06:49:46 PM 35.4475 -90.1992 294° West 375 432 36,000  Level Memphis Center
Tue 06:50:46 PM 35.4892 -90.3161 294° West 380 437 36,000  Level Memphis Center
Tue 06:51:46 PM 35.5289 -90.4386 292° West 375 432 36,000  Level Memphis Center
Tue 06:52:46 PM 35.5725 -90.5611 294° West 380 437 36,000  Level Memphis Center
Tue 06:53:46 PM 35.6139 -90.6789 293° West 380 437 36,000  Level Memphis Center
Tue 06:54:46 PM 35.6553 -90.7992 293° West 380 437 36,000  Level Memphis Center
Tue 06:55:46 PM 35.6944 -90.9169 292° West 375 432 36,000  Level Memphis Center
Tue 06:56:46 PM 35.7356 -91.0347 293° West 375 432 36,000  Level Memphis Center
Tue 06:57:46 PM 35.7786 -91.1553 294° West 375 432 36,000  Level Memphis Center
Tue 06:58:46 PM 35.8175 -91.2736 292° West 375 432 36,000  Level Memphis Center
Tue 06:59:46 PM 35.8583 -91.3944 293° West 375 432 36,000  Level Memphis Center
Tue 07:00:46 PM 35.9072 -91.5231 295° West 375 432 36,000  Level Memphis Center
Tue 07:01:46 PM 35.9478 -91.6442 293° West 380 437 36,000  Level Memphis Center
Tue 07:02:46 PM 35.9800 -91.7525 290° West 375 432 36,000  Level Memphis Center
Tue 07:03:46 PM 36.0203 -91.8736 292° West 375 432 36,000  Level Memphis Center
Tue 07:04:46 PM 36.0583 -91.9950 291° West 380 437 36,000  Level Memphis Center
Tue 07:05:46 PM 36.1064 -92.1269 294° West 375 432 36,000  Level Memphis Center
Tue 07:06:46 PM 36.1464 -92.2486 292° West 375 432 36,000  Level Memphis Center
Tue 07:07:46 PM 36.1864 -92.3681 293° West 375 432 36,000  Level Memphis Center
Tue 07:09:43 PM 36.2547 -92.5806 292° West 384 442 36,000  Level Kansas City Center
Tue 07:10:44 PM 36.3017 -92.7242 292° West 379 436 36,000  Level Kansas City Center
Tue 07:11:47 PM 36.3408 -92.8442 292° West 379 436 36,000  Level Kansas City Center
Tue 07:12:48 PM 36.3794 -92.9642 292° West 378 435 36,000  Level Kansas City Center
Tue 07:13:49 PM 36.4175 -93.0842 292° West 376 433 36,000  Level Kansas City Center
Tue 07:14:52 PM 36.4561 -93.2039 292° West 375 432 36,000  Level Kansas City Center
Tue 07:15:53 PM 36.4931 -93.3211 291° West 371 427 36,000  Level Kansas City Center
Tue 07:16:54 PM 36.5375 -93.4636 291° West 370 426 36,000  Level Kansas City Center
Tue 07:17:58 PM 36.5744 -93.5789 292° West 366 421 36,000  Level Kansas City Center
Tue 07:18:59 PM 36.6119 -93.6961 292° West 367 422 36,000  Level Kansas City Center
Tue 07:20:01 PM 36.6514 -93.8208 292° West 369 425 36,000  Level Kansas City Center
Tue 07:21:02 PM 36.6883 -93.9408 291° West 370 426 36,000  Level Kansas City Center
Tue 07:22:06 PM 36.7250 -94.0589 291° West 368 423 36,000  Level Kansas City Center
Tue 07:23:05 PM 36.7622 -94.1789 291° West 370 426 36,000  Level Kansas City Center
Tue 07:24:09 PM 36.8064 -94.3233 291° West 372 428 36,000  Level Kansas City Center
Tue 07:25:11 PM 36.8428 -94.4439 291° West 372 428 36,000  Level Kansas City Center
Tue 07:26:12 PM 36.8786 -94.5642 290° West 370 426 36,000  Level Kansas City Center
Tue 07:27:15 PM 36.9156 -94.6836 291° West 369 425 36,000  Level Kansas City Center
Tue 07:28:15 PM 36.9506 -94.8011 290° West 366 421 36,000  Level Kansas City Center
Tue 07:29:19 PM 36.9864 -94.9192 291° West 364 419 36,000  Level Kansas City Center
Tue 07:30:19 PM 37.0211 -95.0381 290° West 364 419 36,000  Level Kansas City Center
Tue 07:31:20 PM 37.0628 -95.1783 290° West 361 415 36,000  Level Kansas City Center
Tue 07:32:24 PM 37.0969 -95.2939 290° West 357 411 36,000  Level Kansas City Center
Tue 07:33:24 PM 37.1319 -95.4114 291° West 359 413 36,000  Level Kansas City Center
Tue 07:34:27 PM 37.1653 -95.5317 289° West 363 418 36,000  Level Kansas City Center
Tue 07:35:29 PM 37.2011 -95.6514 291° West 365 420 36,000  Level Kansas City Center
Tue 07:36:30 PM 37.2356 -95.7717 290° West 366 421 36,000  Level Kansas City Center
Tue 07:37:31 PM 37.2694 -95.8908 290° West 365 420 36,000  Level Kansas City Center
Tue 07:38:32 PM 37.3111 -96.0356 290° West 367 422 36,000  Level Kansas City Center
Tue 07:39:35 PM 37.3453 -96.1558 290° West 366 421 36,000  Level Kansas City Center
Tue 07:40:35 PM 37.3786 -96.2775 289° West 366 421 36,000  Level Kansas City Center
Tue 07:41:38 PM 37.4133 -96.3964 290° West 363 418 36,000  Level Kansas City Center
Tue 07:42:39 PM 37.4508 -96.5272 290° West 363 418 36,000  Level Kansas City Center
Tue 07:43:42 PM 37.4839 -96.6467 289° West 361 415 36,000  Level Kansas City Center
Tue 07:44:43 PM 37.5183 -96.7653 290° West 361 415 36,000  Level Kansas City Center
Tue 07:45:44 PM 37.5539 -96.8850 291° West 366 421 36,000  Level Kansas City Center
Tue 07:46:46 PM 37.5861 -97.0036 289° West 361 415 36,000  Level Kansas City Center
Tue 07:47:49 PM 37.6197 -97.1231 290° West 361 415 36,000  Level Kansas City Center
Tue 07:48:50 PM 37.6528 -97.2428 289° West 362 417 36,000  Level Kansas City Center
Tue 07:49:51 PM 37.6858 -97.3625 289° West 361 415 36,000  Level Kansas City Center
Tue 07:50:53 PM 37.7242 -97.5075 289° West 359 413 36,000  Level Kansas City Center
Tue 07:51:54 PM 37.7600 -97.6217 292° West 356 410 36,000  Level Kansas City Center
Tue 07:52:57 PM 37.8075 -97.7347 298° West 354 407 36,000  Level Kansas City Center
Tue 07:54:00 PM 37.8556 -97.8492 298° West 363 418 36,000  Level Kansas City Center
Tue 07:55:01 PM 37.9033 -97.9625 298° West 365 420 36,000  Level Kansas City Center
Tue 07:56:00 PM 37.9522 -98.0783 298° West 367 422 36,000  Level Kansas City Center
Tue 07:57:04 PM 38.0022 -98.1969 298° West 361 415 36,000  Level Kansas City Center
Tue 07:58:05 PM 38.0500 -98.3081 299° West 358 412 36,000  Level Kansas City Center
Tue 07:59:06 PM 38.0989 -98.4200 299° West 361 415 36,000  Level Kansas City Center
Tue 08:00:08 PM 38.1450 -98.5328 297° West 362 417 36,000  Level Kansas City Center
Tue 08:01:10 PM 38.1917 -98.6461 298° West 361 415 36,000  Level Kansas City Center
Tue 08:02:10 PM 38.2394 -98.7589 298° West 362 417 36,000  Level Kansas City Center
Tue 08:03:14 PM 38.2936 -98.8956 297° West 362 417 36,000  Level Kansas City Center
Tue 08:04:15 PM 38.3392 -99.0097 297° West 362 417 36,000  Level Kansas City Center
Tue 08:05:16 PM 38.3867 -99.1239 298° West 364 419 36,000  Level Kansas City Center
Tue 08:06:16 PM 38.4339 -99.2392 298° West 366 421 36,000  Level Kansas City Center
Tue 08:07:20 PM 38.4817 -99.3578 297° West 372 428 36,000  Level Kansas City Center
Tue 08:08:20 PM 38.5281 -99.4739 297° West 369 425 36,000 484 Level Kansas City Center
Tue 08:09:24 PM 38.5828 -99.6136 297° West 370 426 37,000 857 Climbing Kansas City Center
Tue 08:10:33 PM 38.6358 -99.7453 297° West 375 432 37,900 458 Climbing Denver Center
Tue 08:11:35 PM 38.6892 -99.8772 297° West 374 430 38,000 48 Climbing Denver Center
Tue 08:12:37 PM 38.7339 -99.9911 297° West 375 432 38,000  Level Denver Center
Tue 08:13:39 PM 38.7867 -100.1258 297° West 380 437 38,000  Level Denver Center
Tue 08:14:41 PM 38.8319 -100.2403 297° West 378 435 38,000  Level Denver Center
Tue 08:15:43 PM 38.8786 -100.3586 297° West 386 444 38,000  Level Denver Center
Tue 08:16:45 PM 38.9311 -100.4964 296° West 387 445 38,000  Level Denver Center
Tue 08:17:47 PM 38.9769 -100.6111 297° West 382 440 38,000  Level Denver Center
Tue 08:18:49 PM 39.0269 -100.7433 296° West 387 445 38,000  Level Denver Center
Tue 08:19:51 PM 39.0803 -100.8786 297° West 383 441 38,000  Level Denver Center
Tue 08:20:53 PM 39.1244 -100.9950 296° West 378 435 38,000  Level Denver Center
Tue 08:21:55 PM 39.1761 -101.1331 296° West 380 437 38,000  Level Denver Center
Tue 08:22:57 PM 39.2192 -101.2458 296° West 370 426 38,000  Level Denver Center
Tue 08:23:59 PM 39.2689 -101.3778 296° West 366 421 38,000  Level Denver Center
Tue 08:25:01 PM 39.3122 -101.4919 296° West 370 426 38,000  Level Denver Center
Tue 08:26:03 PM 39.3561 -101.6078 296° West 374 430 38,000  Level Denver Center
Tue 08:27:05 PM 39.3986 -101.7464 292° West 368 423 38,000  Level Denver Center
Tue 08:28:06 PM 39.4206 -101.8694 283° West 366 421 38,000  Level Denver Center
Tue 08:29:09 PM 39.4467 -102.0114 283° West 363 418 38,000  Level Denver Center
Tue 08:30:10 PM 39.4708 -102.1369 284° West 370 426 38,000  Level Denver Center
Tue 08:31:12 PM 39.4961 -102.2828 283° West 371 427 38,000  Level Denver Center
Tue 08:32:14 PM 39.5186 -102.4067 283° West 369 425 38,000  Level Denver Center
Tue 08:33:16 PM 39.5422 -102.5406 283° West 373 429 38,000  Level Denver Center
Tue 08:34:18 PM 39.5664 -102.6750 283° West 381 438 38,000  Level Denver Center
Tue 08:35:20 PM 39.5897 -102.8094 283° West 381 438 38,000  Level Denver Center
Tue 08:36:22 PM 39.6181 -102.9656 283° West 380 437 38,000  Level Denver Center
Tue 08:37:24 PM 39.6408 -103.0989 283° West 377 434 38,000  Level Denver Center
Tue 08:38:26 PM 39.6633 -103.2322 282° West 377 434 38,000  Level Denver Center
Tue 08:39:27 PM 39.6867 -103.3667 283° West 380 437 38,000  Level Denver Center
Tue 08:40:29 PM 39.7094 -103.5019 282° West 380 437 38,000  Level Denver Center
Tue 08:41:31 PM 39.7319 -103.6392 282° West 385 443 38,000  Level Denver Center
Tue 08:42:33 PM 39.7556 -103.7761 283° West 387 445 38,000  Level Denver Center
Tue 08:43:35 PM 39.7789 -103.9139 282° West 386 444 38,000  Level Denver Center
Tue 08:44:36 PM 39.8047 -104.0706 282° West 378 435 38,000  Level Denver Center
Tue 08:45:38 PM 39.8269 -104.2089 282° West 385 443 38,000  Level Denver Center
Tue 08:46:40 PM 39.8492 -104.3456 282° West 385 443 38,000  Level Denver Center
Tue 08:47:41 PM 39.8708 -104.4822 282° West 385 443 38,000  Level Denver Center
Tue 08:48:43 PM 39.8925 -104.6181 282° West 378 435 38,000  Level Denver Center
Tue 08:49:45 PM 39.9031 -104.7547 276° West 378 435 38,000  Level Denver Center
Tue 08:50:46 PM 39.9108 -104.8931 274° West 382 440 38,000  Level Denver Center
Tue 08:51:48 PM 39.9214 -105.0517 275° West 376 433 38,000  Level Denver Center
Tue 08:52:50 PM 39.9294 -105.1906 274° West 379 436 38,000  Level Denver Center
Tue 08:53:51 PM 39.9378 -105.3278 275° West 377 434 38,000 49 Level Denver Center
Tue 08:54:53 PM 39.9469 -105.4664 275° West 380 437 38,100  Climbing Denver Center
Tue 08:56:07 PM 39.9539 -105.6061 274° West 383 441 38,000 -44 Descending Denver Center
Tue 08:57:09 PM 39.9639 -105.7706 275° West 392 451 38,000  Level Denver Center
Tue 08:58:10 PM 39.9697 -105.8886 274° West 388 447 38,000  Level Denver Center
Tue 08:59:12 PM 39.9794 -106.0561 274° West 393 452 38,000  Level Denver Center
Tue 09:00:13 PM 39.9894 -106.2236 275° West 393 452 38,000  Level Denver Center
Tue 09:01:15 PM 39.9944 -106.3656 273° West 390 449 38,000  Level Denver Center
Tue 09:02:16 PM 40.0039 -106.5092 275° West 390 449 38,000  Level Denver Center
Tue 09:03:18 PM 40.0117 -106.6569 274° West 393 452 38,000  Level Denver Center
Tue 09:04:19 PM 40.0183 -106.7892 274° West 384 442 38,000  Level Denver Center
Tue 09:05:21 PM 40.0242 -106.9217 273° West 382 440 38,000  Level Denver Center
Tue 09:06:22 PM 40.0317 -107.0767 274° West 383 441 38,000  Level Denver Center
Tue 09:07:24 PM 40.0375 -107.2081 273° West 381 438 38,000  Level Denver Center
Tue 09:08:26 PM 40.0444 -107.3631 273° West 384 442 38,000  Level Denver Center
Tue 09:09:27 PM 40.0500 -107.4958 273° West 382 440 38,000  Level Denver Center
Tue 09:10:29 PM 40.0567 -107.6528 273° West 388 447 38,000  Level Denver Center
Tue 09:11:30 PM 40.0619 -107.7875 273° West 390 449 38,000  Level Denver Center
Tue 09:12:32 PM 40.0667 -107.9206 273° West 385 443 38,000  Level Denver Center
Tue 09:13:33 PM 40.0450 -108.0781 260° West 396 456 38,000  Level Denver Center
Tue 09:14:35 PM 40.0253 -108.2131 259° West 397 457 38,000  Level Denver Center
Tue 09:15:36 PM 40.0019 -108.3711 259° West 399 459 38,000  Level Denver Center
Tue 09:16:38 PM 39.9814 -108.5047 259° West 397 457 38,000  Level Denver Center
Tue 09:17:39 PM 39.9578 -108.6575 259° West 390 449 38,000  Level Denver Center
Tue 09:18:41 PM 39.9378 -108.7892 259° West 390 449 38,000  Level Denver Center
Tue 09:19:42 PM 39.9139 -108.9425 259° West 392 451 38,000  Level Denver Center
Tue 09:20:11 PM 39.9036 -109.0094 259° West 391 450 38,000  Level Salt Lake Center
Tue 09:21:13 PM 39.8831 -109.1425 259° West 395 455 38,000  Level Salt Lake Center
Tue 09:22:14 PM 39.8619 -109.2783 259° West 401 461 38,000  Level Salt Lake Center
Tue 09:23:15 PM 39.8367 -109.4378 258° West 403 464 38,000  Level Salt Lake Center
Tue 09:23:49 PM 39.8256 -109.5039 258° West 402 463 38,000  Level Denver Center
Tue 09:24:50 PM 39.8006 -109.6606 258° West 398 458 38,000  Level Denver Center
Tue 09:25:18 PM 39.7897 -109.7278 258° West 396 456 38,000  Level Salt Lake Center
Tue 09:26:19 PM 39.7683 -109.8619 258° West 396 456 38,000  Level Salt Lake Center
Tue 09:27:20 PM 39.7464 -109.9942 258° West 394 453 38,000  Level Salt Lake Center
Tue 09:28:22 PM 39.7197 -110.1522 258° West 399 459 38,000  Level Salt Lake Center
Tue 09:29:23 PM 39.6978 -110.2842 258° West 395 455 38,000  Level Salt Lake Center
Tue 09:30:24 PM 39.6725 -110.4394 258° West 393 452 38,000  Level Salt Lake Center
Tue 09:31:26 PM 39.6489 -110.5717 257° West 394 453 38,000  Level Salt Lake Center
Tue 09:32:27 PM 39.6283 -110.7044 259° West 391 450 38,000  Level Salt Lake Center
Tue 09:33:28 PM 39.6011 -110.8592 257° West 393 452 38,000  Level Salt Lake Center
Tue 09:34:30 PM 39.5786 -110.9914 258° West 393 452 38,000  Level Salt Lake Center
Tue 09:35:31 PM 39.5517 -111.1444 257° West 392 451 38,000  Level Salt Lake Center
Tue 09:36:32 PM 39.5286 -111.2747 257° West 389 448 38,000  Level Salt Lake Center
Tue 09:37:34 PM 39.5064 -111.3997 257° West 388 447 38,000  Level Salt Lake Center
Tue 09:38:35 PM 39.4781 -111.5628 257° West 387 445 38,000  Level Salt Lake Center
Tue 09:39:36 PM 39.4528 -111.6989 257° West 390 449 38,000  Level Salt Lake Center
Tue 09:40:38 PM 39.4278 -111.8353 257° West 390 449 38,000  Level Salt Lake Center
Tue 09:41:39 PM 39.4019 -111.9719 256° West 391 450 38,000  Level Salt Lake Center
Tue 09:42:40 PM 39.3781 -112.1086 257° West 391 450 38,000  Level Salt Lake Center
Tue 09:43:41 PM 39.3522 -112.2447 256° West 390 449 38,000  Level Salt Lake Center
Tue 09:44:43 PM 39.3272 -112.3808 257° West 391 450 38,000  Level Salt Lake Center
Tue 09:45:44 PM 39.3006 -112.5156 256° West 388 447 38,000  Level Salt Lake Center
Tue 09:46:45 PM 39.2658 -112.6675 254° West 391 450 38,000  Level Salt Lake Center
Tue 09:47:47 PM 39.2361 -112.7975 254° West 384 442 38,000  Level Salt Lake Center
Tue 09:48:48 PM 39.2058 -112.9317 254° West 388 447 38,000  Level Salt Lake Center
Tue 09:49:50 PM 39.1761 -113.0589 253° West 378 435 38,000  Level Salt Lake Center
Tue 09:50:51 PM 39.1475 -113.1861 254° West 372 428 38,000  Level Salt Lake Center
Tue 09:51:52 PM 39.1164 -113.3169 253° West 378 435 38,000  Level Salt Lake Center
Tue 09:52:54 PM 39.0869 -113.4478 254° West 380 437 38,000  Level Salt Lake Center
Tue 09:53:55 PM 39.0506 -113.6025 253° West 378 435 38,000  Level Salt Lake Center
Tue 09:54:56 PM 39.0206 -113.7303 253° West 375 432 38,000  Level Salt Lake Center
Tue 09:55:58 PM 38.9897 -113.8619 253° West 384 442 38,000  Level Salt Lake Center
Tue 09:56:59 PM 38.9581 -113.9925 253° West 386 444 38,000  Level Salt Lake Center
Tue 09:58:01 PM 38.9261 -114.1244 253° West 387 445 38,000  Level Salt Lake Center
Tue 09:59:02 PM 38.8953 -114.2544 253° West 384 442 38,000  Level Salt Lake Center
Tue 10:00:04 PM 38.8639 -114.3856 253° West 385 443 38,000  Level Salt Lake Center
Tue 10:01:05 PM 38.8319 -114.5164 253° West 386 444 38,000  Level Salt Lake Center
Tue 10:02:06 PM 38.7928 -114.6739 252° West 388 447 38,000  Level Salt Lake Center
Tue 10:03:08 PM 38.7614 -114.8053 253° West 387 445 38,000  Level Salt Lake Center
Tue 10:04:09 PM 38.7292 -114.9339 252° West 383 441 38,000  Level Salt Lake Center
Tue 10:05:11 PM 38.6967 -115.0631 252° West 383 441 38,000  Level Salt Lake Center
Tue 10:06:12 PM 38.6636 -115.1906 252° West 381 438 38,000  Level Salt Lake Center
Tue 10:07:14 PM 38.6314 -115.3172 252° West 377 434 38,000  Level Salt Lake Center
Tue 10:08:15 PM 38.5931 -115.4650 252° West 379 436 38,000  Level Salt Lake Center
Tue 10:09:16 PM 38.5608 -115.5961 253° West 385 443 38,000  Level Salt Lake Center
Tue 10:10:18 PM 38.5275 -115.7278 252° West 388 447 38,000  Level Salt Lake Center
Tue 10:11:19 PM 38.4939 -115.8594 252° West 391 450 38,000  Level Salt Lake Center
Tue 10:12:21 PM 38.4594 -115.9908 252° West 390 449 38,000  Level Salt Lake Center
Tue 10:13:22 PM 38.4258 -116.1233 252° West 394 453 38,000  Level Salt Lake Center
Tue 10:14:10 PM 38.3969 -116.2308 251° West 397 457 38,000  Level Oakland Center
Tue 10:15:11 PM 38.3622 -116.3628 251° West 394 453 38,000  Level Oakland Center
Tue 10:16:12 PM 38.3275 -116.4947 251° West 393 452 38,000  Level Oakland Center
Tue 10:17:13 PM 38.2919 -116.6253 251° West 391 450 38,000 -443 Level Oakland Center
Tue 10:18:14 PM 38.2583 -116.7564 252° West 390 449 37,100 -934 Descending Oakland Center
Tue 10:19:15 PM 38.2233 -116.8867 251° West 390 449 36,100 -857 Descending Oakland Center
Tue 10:19:31 PM 38.2111 -116.9394 254° West 391 450 36,000 -77 Descending Salt Lake Center
Tue 10:20:33 PM 38.1947 -117.0783 262° West 398 458 36,000  Level Salt Lake Center
Tue 10:21:17 PM 38.1803 -117.1858 260° West 403 464 36,000  Level Oakland Center
Tue 10:22:18 PM 38.1628 -117.3264 261° West 403 464 36,000  Level Oakland Center
Tue 10:23:19 PM 38.1444 -117.4603 260° West 405 466 36,000  Level Oakland Center
Tue 10:24:20 PM 38.1261 -117.6006 261° West 403 464 36,000  Level Oakland Center
Tue 10:25:21 PM 38.1067 -117.7414 260° West 404 465 36,000  Level Oakland Center
Tue 10:26:22 PM 38.0881 -117.8836 261° West 407 468 36,000  Level Oakland Center
Tue 10:27:23 PM 38.0686 -118.0256 260° West 409 471 36,000  Level Oakland Center
Tue 10:28:24 PM 38.0444 -118.1958 260° West 409 471 36,000  Level Oakland Center
Tue 10:29:25 PM 38.0256 -118.3394 261° West 412 474 36,000  Level Oakland Center
Tue 10:30:26 PM 38.0050 -118.4828 260° West 412 474 36,000  Level Oakland Center
Tue 10:31:27 PM 37.9836 -118.6272 259° West 416 479 36,000  Level Oakland Center
Tue 10:32:29 PM 37.9622 -118.7736 260° West 423 487 36,000  Level Oakland Center
Tue 10:33:30 PM 37.9439 -118.9167 261° West 413 475 36,000  Level Oakland Center
Tue 10:34:31 PM 37.9225 -119.0622 259° West 418 481 36,000 -98 Level Oakland Center
Tue 10:35:32 PM 37.9011 -119.1994 259° West 420 483 35,800 -590 Descending Oakland Center
Tue 10:36:33 PM 37.8792 -119.3456 259° West 421 484 34,800 -1,082 Descending Oakland Center
Tue 10:37:34 PM 37.8528 -119.5219 259° West 424 488 33,600 -1,033 Descending Oakland Center
Tue 10:38:35 PM 37.8317 -119.6714 260° West 428 493 32,700 -934 Descending Oakland Center
Tue 10:39:36 PM 37.8078 -119.8206 259° West 432 497 31,700 -934 Descending Oakland Center
Tue 10:40:37 PM 37.7853 -119.9728 259° West 438 504 30,800 -934 Descending Oakland Center
Tue 10:41:38 PM 37.7606 -120.1253 258° West 441 507 29,800 -976 Descending Oakland Center
Tue 10:42:40 PM 37.7367 -120.2778 259° West 442 509 28,800 -976 Descending Oakland Center
Tue 10:43:41 PM 37.7136 -120.4267 259° West 433 498 27,800 -984 Descending Oakland Center
Tue 10:44:42 PM 37.6897 -120.5711 258° West 423 487 26,800 -1,065 Descending Oakland Center
Tue 10:45:28 PM 37.6667 -120.7000 257° West 417 480 25,900 -1,311 Descending Northern Cal TRACON
Tue 10:47:45 PM 37.6231 -120.9967 260° West 408 470 22,800 -1,758 Descending Oakland Center
Tue 10:48:46 PM 37.6086 -121.1314 262° West 395 455 20,100 -2,680 Descending Oakland Center
Tue 10:49:28 PM 37.6000 -121.2333 264° West 381 438 18,200 -2,588 Descending Northern Cal TRACON
Tue 10:50:28 PM 37.5833 -121.3667 261° West 360 414 15,700 -2,600 Descending Northern Cal TRACON
Tue 10:51:28 PM 37.5667 -121.4833 260° West 348 400 13,000 -2,300 Descending Northern Cal TRACON
Tue 10:52:28 PM 37.5500 -121.6000 260° West 331 381 11,100 -1,250 Descending Northern Cal TRACON
Tue 10:53:28 PM 37.5333 -121.7000 258° West 297 342 10,500 -850 Descending Northern Cal TRACON
Tue 10:54:28 PM 37.5000 -121.8000 247° West 274 315 9,400 -1,050 Descending Northern Cal TRACON
Tue 10:55:28 PM 37.4833 -121.8667 253° West 240 276 8,400 -1,267 Descending Northern Cal TRACON
Tue 10:57:28 PM 37.5167 -122.0333 284° West 218 251 5,600 -1,333 Descending Northern Cal TRACON
Tue 10:58:28 PM 37.5333 -122.1000 288° West 198 228 4,400 -1,113 Descending Northern Cal TRACON
Tue 10:59:59 PM 37.5600 -122.1828 292° West 197 227 2,800 -1,026 Descending Oakland Center
Tue 11:01:00 PM 37.5775 -122.2392 291° West 186 214 1,800 -787 Descending Oakland Center
Tue 11:02:01 PM 37.5844 -122.2881 280° West 160 184 1,200 -639 Descending Oakland Center
Tue 11:03:02 PM 37.5994 -122.3300 294° West 144 166 500 -537 Descending Oakland Center
Tue 11:04:04 PM 37.6178 -122.3719 299° West 136 157 100 -387 Descending Oakland Center
Tue 11:06:00 PM 37.6167 -122.3667 322° Northwest  Level FlightAware Approximate

Login

Don't have an account? Register now (free) for customized features, flight alerts, and more!